createdAt,value
2016-07-07T00:00:09.196Z,16.84
2016-07-07T00:01:08.576Z,16.82
2016-07-07T00:02:09.200Z,16.8
2016-07-07T00:03:09.192Z,16.83
2016-07-07T00:04:09.204Z,16.76
2016-07-07T00:05:09.208Z,16.69
2016-07-07T00:06:08.577Z,16.74
2016-07-07T00:07:09.206Z,16.55
2016-07-07T00:08:09.209Z,16.62
2016-07-07T00:09:09.198Z,16.51
2016-07-07T00:10:09.197Z,16.47
2016-07-07T00:11:09.195Z,16.43
2016-07-07T00:12:08.578Z,16.37
2016-07-07T00:13:08.581Z,16.31
2016-07-07T00:14:09.194Z,16.22
2016-07-07T00:15:09.204Z,16.24
2016-07-07T00:16:09.210Z,16.13
2016-07-07T00:17:08.574Z,16.06
2016-07-07T00:18:09.200Z,16.02
2016-07-07T00:19:09.214Z,15.96
2016-07-07T00:20:09.207Z,15.98
2016-07-07T00:21:09.210Z,15.84
2016-07-07T00:22:09.211Z,15.8
2016-07-07T00:23:09.210Z,15.81
2016-07-07T00:24:08.586Z,15.8
2016-07-07T00:25:09.222Z,15.76
2016-07-07T00:26:09.217Z,15.75
2016-07-07T00:27:09.218Z,15.67
2016-07-07T00:28:09.217Z,15.73
2016-07-07T00:29:09.222Z,15.63
2016-07-07T00:30:09.208Z,15.6
2016-07-07T00:31:09.203Z,15.65
2016-07-07T00:32:09.202Z,15.54
2016-07-07T00:33:09.206Z,15.62
2016-07-07T00:34:08.600Z,15.54
2016-07-07T00:35:09.226Z,15.54
2016-07-07T00:36:09.222Z,15.51
2016-07-07T00:37:09.218Z,15.59
2016-07-07T00:38:09.232Z,15.55
2016-07-07T00:39:09.226Z,15.52
2016-07-07T00:40:08.604Z,15.51
2016-07-07T00:41:09.236Z,15.44
2016-07-07T00:42:09.228Z,15.39
2016-07-07T00:43:09.232Z,15.41
2016-07-07T00:44:09.235Z,15.32
2016-07-07T00:45:09.236Z,15.45
2016-07-07T00:46:09.240Z,15.35
2016-07-07T00:47:09.236Z,15.3
2016-07-07T00:48:09.243Z,15.23
2016-07-07T00:49:09.240Z,15.22
2016-07-07T00:50:09.233Z,15.08
2016-07-07T00:51:09.237Z,15.05
2016-07-07T00:52:09.236Z,14.99
2016-07-07T00:53:08.612Z,14.93
2016-07-07T00:54:09.248Z,14.85
2016-07-07T00:55:09.237Z,14.77
2016-07-07T00:56:08.621Z,14.74
2016-07-07T00:57:09.230Z,14.67
2016-07-07T00:58:09.228Z,14.63
2016-07-07T00:59:09.241Z,14.63
2016-07-07T01:00:08.615Z,14.56
2016-07-07T01:01:09.245Z,14.48
2016-07-07T01:02:09.240Z,14.45
2016-07-07T01:03:09.226Z,14.4
2016-07-07T01:04:08.600Z,14.38
2016-07-07T01:05:09.236Z,14.41
2016-07-07T01:06:09.226Z,14.36
2016-07-07T01:07:08.608Z,14.38
2016-07-07T01:08:09.228Z,14.26
2016-07-07T01:09:09.233Z,14.37
2016-07-07T01:10:09.249Z,14.23
2016-07-07T01:11:09.248Z,14.33
2016-07-07T01:12:09.249Z,14.36
2016-07-07T01:13:09.236Z,14.28
2016-07-07T01:14:08.624Z,14.19
2016-07-07T01:15:08.625Z,14.2
2016-07-07T01:16:09.248Z,14.28
2016-07-07T01:17:08.631Z,14.23
2016-07-07T01:18:09.249Z,14.16
2016-07-07T01:19:09.256Z,14.25
2016-07-07T01:20:09.251Z,14.2
2016-07-07T01:21:08.628Z,14.2
2016-07-07T01:22:09.256Z,14.19
2016-07-07T01:23:09.245Z,14.12
2016-07-07T01:24:09.242Z,14.11
2016-07-07T01:25:09.255Z,14.11
2016-07-07T01:26:09.256Z,14.04
2016-07-07T01:27:09.256Z,14.04
2016-07-07T01:28:09.255Z,13.95
2016-07-07T01:29:09.260Z,14
2016-07-07T01:30:09.260Z,13.95
2016-07-07T01:31:09.264Z,13.94
2016-07-07T01:32:08.632Z,13.89
2016-07-07T01:33:09.256Z,13.87
2016-07-07T01:34:09.245Z,13.93
2016-07-07T01:35:09.247Z,13.93
2016-07-07T01:36:09.268Z,13.86
2016-07-07T01:37:09.268Z,13.94
2016-07-07T01:38:08.636Z,13.82
2016-07-07T01:39:08.640Z,13.91
2016-07-07T01:40:09.264Z,13.93
2016-07-07T01:41:09.264Z,13.76
2016-07-07T01:42:09.268Z,13.8
2016-07-07T01:43:09.272Z,13.76
2016-07-07T01:44:09.254Z,13.76
2016-07-07T01:45:08.644Z,13.76
2016-07-07T01:46:09.261Z,13.76
2016-07-07T01:47:09.268Z,13.73
2016-07-07T01:48:09.270Z,13.78
2016-07-07T01:49:09.273Z,13.78
2016-07-07T01:50:09.277Z,13.7
2016-07-07T01:51:09.261Z,13.65
2016-07-07T01:52:09.248Z,13.71
2016-07-07T01:53:09.263Z,13.67
2016-07-07T01:54:09.253Z,13.67
2016-07-07T01:55:09.278Z,13.6
2016-07-07T01:56:08.640Z,13.58
2016-07-07T01:57:09.262Z,13.55
2016-07-07T01:58:09.257Z,13.55
2016-07-07T01:59:09.263Z,13.55
2016-07-07T02:00:09.264Z,13.49
2016-07-07T02:01:08.635Z,13.46
2016-07-07T02:02:08.630Z,13.47
2016-07-07T02:03:09.264Z,13.49
2016-07-07T02:04:09.276Z,13.31
2016-07-07T02:05:09.271Z,13.36
2016-07-07T02:06:09.258Z,13.33
2016-07-07T02:07:09.275Z,13.39
2016-07-07T02:08:09.279Z,13.36
2016-07-07T02:09:09.269Z,13.28
2016-07-07T02:10:08.651Z,13.27
2016-07-07T02:11:09.277Z,13.26
2016-07-07T02:12:09.259Z,13.31
2016-07-07T02:13:09.269Z,13.24
2016-07-07T02:14:09.269Z,13.27
2016-07-07T02:15:09.283Z,13.28
2016-07-07T02:16:09.274Z,13.21
2016-07-07T02:17:08.639Z,13.33
2016-07-07T02:18:09.268Z,13.21
2016-07-07T02:19:09.272Z,13.23
2016-07-07T02:20:09.283Z,13.27
2016-07-07T02:21:09.284Z,13.16
2016-07-07T02:22:09.279Z,13.24
2016-07-07T02:23:09.295Z,13.26
2016-07-07T02:24:09.287Z,13.2
2016-07-07T02:25:09.286Z,13.17
2016-07-07T02:26:09.285Z,13.24
2016-07-07T02:27:08.668Z,13.13
2016-07-07T02:28:09.279Z,13.16
2016-07-07T02:29:09.294Z,13.13
2016-07-07T02:30:09.286Z,13.12
2016-07-07T02:31:09.277Z,13.12
2016-07-07T02:32:09.286Z,13.09
2016-07-07T02:33:09.282Z,13.09
2016-07-07T02:34:09.289Z,13.09
2016-07-07T02:35:08.651Z,13.08
2016-07-07T02:36:09.293Z,13.05
2016-07-07T02:37:09.290Z,13.02
2016-07-07T02:38:08.665Z,12.93
2016-07-07T02:39:09.279Z,12.93
2016-07-07T02:40:09.298Z,12.9
2016-07-07T02:41:09.298Z,12.83
2016-07-07T02:42:09.298Z,12.83
2016-07-07T02:43:08.670Z,12.83
2016-07-07T02:44:08.665Z,12.81
2016-07-07T02:45:08.655Z,12.84
2016-07-07T02:46:09.274Z,12.81
2016-07-07T02:47:09.279Z,12.81
2016-07-07T02:48:09.294Z,12.81
2016-07-07T02:49:09.287Z,12.73
2016-07-07T02:50:09.289Z,12.83
2016-07-07T02:51:09.294Z,12.87
2016-07-07T02:52:09.285Z,12.75
2016-07-07T02:53:09.302Z,12.87
2016-07-07T02:54:09.315Z,12.73
2016-07-07T02:55:09.297Z,12.75
2016-07-07T02:56:08.667Z,12.73
2016-07-07T02:57:09.298Z,12.66
2016-07-07T02:58:08.666Z,12.8
2016-07-07T02:59:09.303Z,12.8
2016-07-07T03:00:09.299Z,12.72
2016-07-07T03:01:09.295Z,12.7
2016-07-07T03:02:09.296Z,12.73
2016-07-07T03:03:08.669Z,12.8
2016-07-07T03:04:09.298Z,12.73
2016-07-07T03:05:09.303Z,12.76
2016-07-07T03:06:09.307Z,12.68
2016-07-07T03:07:09.300Z,12.72
2016-07-07T03:08:09.313Z,12.68
2016-07-07T03:09:09.296Z,12.69
2016-07-07T03:10:09.308Z,12.66
2016-07-07T03:11:09.311Z,12.55
2016-07-07T03:12:09.298Z,12.72
2016-07-07T03:13:09.308Z,12.54
2016-07-07T03:14:09.313Z,12.61
2016-07-07T03:15:09.312Z,12.55
2016-07-07T03:16:09.315Z,12.57
2016-07-07T03:17:09.308Z,12.62
2016-07-07T03:18:09.312Z,12.62
2016-07-07T03:19:09.313Z,12.58
2016-07-07T03:20:08.668Z,12.7
2016-07-07T03:21:09.305Z,12.66
2016-07-07T03:22:09.289Z,12.68
2016-07-07T03:23:09.290Z,12.63
2016-07-07T03:24:09.293Z,12.72
2016-07-07T03:25:09.299Z,12.54
2016-07-07T03:26:08.680Z,12.62
2016-07-07T03:27:09.305Z,12.55
2016-07-07T03:28:09.304Z,12.53
2016-07-07T03:29:08.689Z,12.62
2016-07-07T03:30:09.313Z,12.66
2016-07-07T03:31:09.296Z,12.69
2016-07-07T03:32:09.309Z,12.66
2016-07-07T03:33:09.306Z,12.7
2016-07-07T03:34:08.684Z,12.76
2016-07-07T03:35:08.682Z,12.69
2016-07-07T03:36:08.683Z,12.73
2016-07-07T03:37:08.664Z,12.75
2016-07-07T03:38:09.297Z,12.68
2016-07-07T03:39:09.308Z,12.75
2016-07-07T03:40:09.309Z,12.72
2016-07-07T03:41:08.689Z,12.7
2016-07-07T03:42:09.312Z,12.72
2016-07-07T03:43:09.309Z,12.68
2016-07-07T03:44:09.305Z,12.73
2016-07-07T03:45:09.309Z,12.7
2016-07-07T03:46:09.297Z,12.83
2016-07-07T03:47:09.308Z,12.8
2016-07-07T03:48:09.309Z,12.87
2016-07-07T03:49:09.309Z,12.95
2016-07-07T03:50:08.676Z,12.87
2016-07-07T03:51:09.305Z,12.9
2016-07-07T03:52:09.304Z,12.93
2016-07-07T03:53:09.312Z,12.88
2016-07-07T03:54:09.313Z,13.03
2016-07-07T03:55:09.303Z,13.05
2016-07-07T03:56:09.314Z,13.06
2016-07-07T03:57:09.303Z,13.08
2016-07-07T03:58:09.301Z,13.11
2016-07-07T03:59:08.689Z,13.31
2016-07-07T04:00:09.302Z,13.49
2016-07-07T04:01:09.303Z,13.75
2016-07-07T04:02:09.311Z,14.03
2016-07-07T04:03:09.313Z,14.37
2016-07-07T04:04:09.301Z,14.67
2016-07-07T04:05:09.303Z,15.05
2016-07-07T04:06:09.299Z,15.22
2016-07-07T04:07:09.313Z,15.41
2016-07-07T04:08:09.300Z,15.69
2016-07-07T04:09:09.322Z,15.85
2016-07-07T04:10:09.312Z,16.1
2016-07-07T04:11:09.309Z,16.4
2016-07-07T04:12:08.055Z,16.61
2016-07-07T04:13:09.305Z,16.74
2016-07-07T04:14:09.309Z,16.73
2016-07-07T04:15:09.305Z,16.76
2016-07-07T04:16:08.689Z,16.84
2016-07-07T04:17:09.321Z,17.12
2016-07-07T04:18:09.313Z,17.24
2016-07-07T04:19:09.321Z,17.47
2016-07-07T04:20:09.317Z,17.73
2016-07-07T04:21:09.304Z,17.88
2016-07-07T04:22:09.318Z,17.98
2016-07-07T04:23:08.677Z,18.23
2016-07-07T04:24:09.317Z,18.31
2016-07-07T04:25:09.305Z,18.6
2016-07-07T04:26:09.305Z,18.82
2016-07-07T04:27:09.317Z,19.04
2016-07-07T04:28:09.313Z,19.29
2016-07-07T04:29:09.297Z,19.53
2016-07-07T04:30:08.684Z,19.84
2016-07-07T04:31:09.302Z,20.12
2016-07-07T04:32:09.309Z,20.32
2016-07-07T04:33:09.297Z,20.55
2016-07-07T04:34:09.317Z,20.73
2016-07-07T04:35:09.325Z,21.03
2016-07-07T04:36:09.318Z,21.38
2016-07-07T04:37:08.685Z,21.8
2016-07-07T04:38:09.325Z,22.15
2016-07-07T04:39:09.297Z,22.41
2016-07-07T04:40:09.297Z,22.73
2016-07-07T04:41:09.309Z,22.95
2016-07-07T04:42:09.321Z,23.32
2016-07-07T04:43:09.313Z,23.42
2016-07-07T04:44:08.693Z,23.64
2016-07-07T04:45:08.060Z,24
2016-07-07T04:46:09.317Z,24.41
2016-07-07T04:47:09.322Z,24.79
2016-07-07T04:48:09.308Z,25.07
2016-07-07T04:49:09.322Z,25.3
2016-07-07T04:50:08.683Z,25.52
2016-07-07T04:51:09.311Z,25.7
2016-07-07T04:52:09.305Z,25.95
2016-07-07T04:53:08.683Z,25.96
2016-07-07T04:54:09.311Z,26.03
2016-07-07T04:55:08.061Z,26.27
2016-07-07T04:56:08.687Z,26.56
2016-07-07T04:57:09.322Z,26.88
2016-07-07T04:58:09.311Z,27.15
2016-07-07T04:59:09.326Z,27.47
2016-07-07T05:00:09.309Z,27.48
2016-07-07T05:01:09.309Z,27.78
2016-07-07T05:02:08.681Z,27.95
2016-07-07T05:03:09.313Z,28.2
2016-07-07T05:04:09.315Z,28.53
2016-07-07T05:05:08.695Z,28.87
2016-07-07T05:06:09.326Z,29.05
2016-07-07T05:07:09.315Z,29.24
2016-07-07T05:08:09.323Z,29.47
2016-07-07T05:09:08.691Z,29.69
2016-07-07T05:10:09.339Z,29.83
2016-07-07T05:11:08.696Z,29.9
2016-07-07T05:12:08.689Z,30.13
2016-07-07T05:13:09.330Z,30.24
2016-07-07T05:14:08.699Z,30.43
2016-07-07T05:15:09.332Z,30.67
2016-07-07T05:16:09.339Z,30.73
2016-07-07T05:17:09.335Z,30.65
2016-07-07T05:18:09.331Z,30.38
2016-07-07T05:19:08.706Z,30.11
2016-07-07T05:20:09.332Z,29.95
2016-07-07T05:21:08.707Z,29.53
2016-07-07T05:22:08.087Z,29.31
2016-07-07T05:23:09.324Z,28.97
2016-07-07T05:24:09.330Z,28.56
2016-07-07T05:25:09.339Z,28.22
2016-07-07T05:26:09.339Z,27.85
2016-07-07T05:27:08.715Z,27.57
2016-07-07T05:28:08.722Z,27.11
2016-07-07T05:29:09.354Z,26.68
2016-07-07T05:30:09.355Z,26.45
2016-07-07T05:31:09.351Z,26.18
2016-07-07T05:32:09.351Z,25.89
2016-07-07T05:33:09.347Z,25.77
2016-07-07T05:34:09.348Z,25.56
2016-07-07T05:35:09.347Z,25.36
2016-07-07T05:36:09.347Z,25.34
2016-07-07T05:37:09.351Z,25.21
2016-07-07T05:38:09.351Z,25.09
2016-07-07T05:39:09.356Z,24.86
2016-07-07T05:40:09.356Z,24.78
2016-07-07T05:41:09.351Z,24.65
2016-07-07T05:42:09.348Z,24.48
2016-07-07T05:43:09.353Z,24.36
2016-07-07T05:44:09.360Z,24.19
2016-07-07T05:45:09.361Z,24.22
2016-07-07T05:46:09.359Z,24.09
2016-07-07T05:47:09.364Z,23.89
2016-07-07T05:48:09.339Z,23.76
2016-07-07T05:49:09.368Z,23.58
2016-07-07T05:50:09.368Z,23.55
2016-07-07T05:51:09.367Z,23.37
2016-07-07T05:52:09.368Z,23.36
2016-07-07T05:53:09.364Z,23.37
2016-07-07T05:54:09.364Z,23.54
2016-07-07T05:55:08.744Z,23.89
2016-07-07T05:56:08.740Z,24.25
2016-07-07T05:57:08.744Z,24.58
2016-07-07T05:58:09.370Z,24.99
2016-07-07T05:59:09.365Z,25.21
2016-07-07T06:00:09.376Z,25.22
2016-07-07T06:01:09.376Z,25.49
2016-07-07T06:02:09.362Z,25.73
2016-07-07T06:03:09.362Z,25.89
2016-07-07T06:04:09.375Z,26.08
2016-07-07T06:05:09.370Z,26.19
2016-07-07T06:06:09.377Z,26.22
2016-07-07T06:07:08.752Z,26.19
2016-07-07T06:08:08.756Z,26.08
2016-07-07T06:09:09.380Z,26.07
2016-07-07T06:10:09.392Z,25.93
2016-07-07T06:11:09.370Z,26.13
2016-07-07T06:12:09.372Z,26.08
2016-07-07T06:13:09.368Z,26.08
2016-07-07T06:14:09.373Z,26.07
2016-07-07T06:15:08.748Z,26.11
2016-07-07T06:16:09.383Z,26.1
2016-07-07T06:17:09.372Z,25.95
2016-07-07T06:18:08.765Z,25.86
2016-07-07T06:19:09.387Z,25.86
2016-07-07T06:20:09.400Z,25.96
2016-07-07T06:21:08.769Z,26.13
2016-07-07T06:22:09.396Z,26.15
2016-07-07T06:23:08.777Z,26.33
2016-07-07T06:24:08.776Z,26.52
2016-07-07T06:25:09.393Z,26.7
2016-07-07T06:26:09.401Z,26.85
2016-07-07T06:27:09.402Z,27.33
2016-07-07T06:28:09.401Z,27.9
2016-07-07T06:29:09.397Z,28.34
2016-07-07T06:30:09.393Z,28.64
2016-07-07T06:31:09.393Z,29
2016-07-07T06:32:09.393Z,29.3
2016-07-07T06:33:09.395Z,29.52
2016-07-07T06:34:08.770Z,29.98
2016-07-07T06:35:09.402Z,30.65
2016-07-07T06:36:09.418Z,31.23
2016-07-07T06:37:08.789Z,31.86
2016-07-07T06:38:09.414Z,32.41
2016-07-07T06:39:09.413Z,33.17
2016-07-07T06:40:09.409Z,33.77
2016-07-07T06:41:09.422Z,34.25
2016-07-07T06:42:08.795Z,35.12
2016-07-07T06:43:09.425Z,35.88
2016-07-07T06:44:09.421Z,36.45
2016-07-07T06:45:09.429Z,36.97
2016-07-07T06:46:09.418Z,37.34
2016-07-07T06:47:09.406Z,37.86
2016-07-07T06:48:09.426Z,38.28
2016-07-07T06:49:09.434Z,38.7
2016-07-07T06:50:09.426Z,39.08
2016-07-07T06:51:09.426Z,39.38
2016-07-07T06:52:09.424Z,39.75
2016-07-07T06:53:09.438Z,39.91
2016-07-07T06:54:08.181Z,40.22
2016-07-07T06:55:09.438Z,40.36
2016-07-07T06:56:09.434Z,40.46
2016-07-07T06:57:09.433Z,40.61
2016-07-07T06:58:09.434Z,40.74
2016-07-07T06:59:09.427Z,40.85
2016-07-07T07:00:09.445Z,40.96
2016-07-07T07:01:09.445Z,41.12
2016-07-07T07:02:09.445Z,40.95
2016-07-07T07:03:09.453Z,40.7
2016-07-07T07:04:09.449Z,40.55
2016-07-07T07:05:09.453Z,40.35
2016-07-07T07:06:08.816Z,40
2016-07-07T07:07:09.449Z,39.64
2016-07-07T07:08:09.434Z,39.01
2016-07-07T07:09:09.457Z,38.46
2016-07-07T07:10:08.823Z,37.86
2016-07-07T07:11:09.453Z,37.4
2016-07-07T07:12:09.461Z,36.76
2016-07-07T07:13:09.457Z,36.2
2016-07-07T07:14:09.448Z,35.61
2016-07-07T07:15:09.461Z,35.44
2016-07-07T07:16:09.465Z,35.08
2016-07-07T07:17:09.465Z,34.5
2016-07-07T07:18:09.457Z,34
2016-07-07T07:19:08.838Z,33.75
2016-07-07T07:20:09.450Z,33.77
2016-07-07T07:21:09.465Z,34.1
2016-07-07T07:22:09.475Z,34.47
2016-07-07T07:23:09.465Z,34.75
2016-07-07T07:24:09.461Z,34.71
2016-07-07T07:25:09.466Z,34.47
2016-07-07T07:26:09.465Z,34.44
2016-07-07T07:27:09.464Z,34.51
2016-07-07T07:28:09.474Z,34.59
2016-07-07T07:29:09.478Z,34.75
2016-07-07T07:30:09.474Z,34.82
2016-07-07T07:31:09.478Z,34.75
2016-07-07T07:32:09.491Z,34.7
2016-07-07T07:33:09.486Z,34.65
2016-07-07T07:34:09.479Z,34.78
2016-07-07T07:35:09.478Z,34.66
2016-07-07T07:36:09.492Z,34.37
2016-07-07T07:37:09.491Z,34.37
2016-07-07T07:38:09.483Z,34.4
2016-07-07T07:39:09.479Z,34.02
2016-07-07T07:40:09.481Z,33.91
2016-07-07T07:41:09.487Z,34.06
2016-07-07T07:42:09.481Z,33.69
2016-07-07T07:43:09.482Z,33.53
2016-07-07T07:44:09.479Z,33.58
2016-07-07T07:45:09.495Z,33.63
2016-07-07T07:46:09.497Z,33.88
2016-07-07T07:47:09.501Z,33.79
2016-07-07T07:48:09.505Z,33.69
2016-07-07T07:49:08.239Z,33.5
2016-07-07T07:50:09.500Z,33.38
2016-07-07T07:51:09.505Z,33.09
2016-07-07T07:52:09.513Z,33.13
2016-07-07T07:53:09.493Z,33.35
2016-07-07T07:54:09.512Z,33.72
2016-07-07T07:55:09.501Z,33.51
2016-07-07T07:56:08.876Z,33.61
2016-07-07T07:57:08.877Z,33.67
2016-07-07T07:58:09.497Z,33.61
2016-07-07T07:59:09.516Z,33.67
2016-07-07T08:00:09.513Z,33.82
2016-07-07T08:01:09.525Z,33.77
2016-07-07T08:02:09.514Z,33.97
2016-07-07T08:03:08.897Z,34.11
2016-07-07T08:04:09.517Z,34.06
2016-07-07T08:05:09.520Z,33.85
2016-07-07T08:06:09.525Z,33.85
2016-07-07T08:07:08.905Z,33.54
2016-07-07T08:08:09.529Z,33.38
2016-07-07T08:09:09.533Z,33.36
2016-07-07T08:10:08.905Z,33.45
2016-07-07T08:11:09.537Z,33.66
2016-07-07T08:12:09.521Z,33.81
2016-07-07T08:13:08.905Z,34.13
2016-07-07T08:14:08.914Z,34.62
2016-07-07T08:15:09.541Z,34.83
2016-07-07T08:16:08.922Z,34.35
2016-07-07T08:17:08.917Z,34.06
2016-07-07T08:18:09.553Z,33.66
2016-07-07T08:19:08.917Z,33.54
2016-07-07T08:20:08.921Z,33.51
2016-07-07T08:21:09.554Z,33.77
2016-07-07T08:22:09.551Z,33.88
2016-07-07T08:23:09.557Z,33.65
2016-07-07T08:24:08.922Z,33.42
2016-07-07T08:25:09.546Z,33.32
2016-07-07T08:26:09.555Z,33.08
2016-07-07T08:27:09.547Z,33.13
2016-07-07T08:28:09.550Z,33.32
2016-07-07T08:29:09.568Z,33.22
2016-07-07T08:30:08.929Z,33.2
2016-07-07T08:31:09.563Z,33.15
2016-07-07T08:32:09.570Z,33.2
2016-07-07T08:33:09.558Z,33.44
2016-07-07T08:34:09.570Z,33.85
2016-07-07T08:35:08.955Z,34
2016-07-07T08:36:08.951Z,33.69
2016-07-07T08:37:09.568Z,33.35
2016-07-07T08:38:09.583Z,32.83
2016-07-07T08:39:09.582Z,32.76
2016-07-07T08:40:09.578Z,32.83
2016-07-07T08:41:09.584Z,33.28
2016-07-07T08:42:09.576Z,33.54
2016-07-07T08:43:09.575Z,33.55
2016-07-07T08:44:09.582Z,33.32
2016-07-07T08:45:09.578Z,33.01
2016-07-07T08:46:08.966Z,32.75
2016-07-07T08:47:09.585Z,32.63
2016-07-07T08:48:09.576Z,32.85
2016-07-07T08:49:09.597Z,32.91
2016-07-07T08:50:09.594Z,32.97
2016-07-07T08:51:09.588Z,33.08
2016-07-07T08:52:09.595Z,33.31
2016-07-07T08:53:09.599Z,33.55
2016-07-07T08:54:09.592Z,33.82
2016-07-07T08:55:09.584Z,34.03
2016-07-07T08:56:08.968Z,34.06
2016-07-07T08:57:08.965Z,34.1
2016-07-07T08:58:09.602Z,34.26
2016-07-07T08:59:08.981Z,34.4
2016-07-07T09:00:09.637Z,34.53
2016-07-07T09:01:08.986Z,34.78
2016-07-07T09:02:08.989Z,35.04
2016-07-07T09:03:09.617Z,35.35
2016-07-07T09:04:09.622Z,35.35
2016-07-07T09:05:08.993Z,35.31
2016-07-07T09:06:09.621Z,35.22
2016-07-07T09:07:09.624Z,34.62
2016-07-07T09:08:09.620Z,34.28
2016-07-07T09:09:09.629Z,33.81
2016-07-07T09:10:09.623Z,33.73
2016-07-07T09:11:09.629Z,33.81
2016-07-07T09:12:09.630Z,33.81
2016-07-07T09:13:09.634Z,33.65
2016-07-07T09:14:08.378Z,33.79
2016-07-07T09:15:09.637Z,33.85
2016-07-07T09:16:09.637Z,34.06
2016-07-07T09:17:09.644Z,34.28
2016-07-07T09:18:09.638Z,34.41
2016-07-07T09:19:09.015Z,34.53
2016-07-07T09:20:09.022Z,34.4
2016-07-07T09:21:09.638Z,34.32
2016-07-07T09:22:09.654Z,34.13
2016-07-07T09:23:09.026Z,34.03
2016-07-07T09:24:09.026Z,34
2016-07-07T09:25:08.402Z,34.11
2016-07-07T09:26:09.658Z,34.02
2016-07-07T09:27:09.637Z,33.66
2016-07-07T09:28:09.038Z,33.54
2016-07-07T09:29:09.658Z,33.39
2016-07-07T09:30:09.663Z,33.38
2016-07-07T09:31:09.663Z,33.33
2016-07-07T09:32:09.659Z,33.19
2016-07-07T09:33:09.666Z,33.28
2016-07-07T09:34:09.667Z,33.51
2016-07-07T09:35:09.658Z,33.44
2016-07-07T09:36:09.665Z,33.09
2016-07-07T09:37:09.650Z,32.85
2016-07-07T09:38:09.674Z,32.68
2016-07-07T09:39:09.662Z,32.53
2016-07-07T09:40:09.671Z,32.57
2016-07-07T09:41:09.686Z,32.54
2016-07-07T09:42:09.666Z,32.78
2016-07-07T09:43:09.669Z,32.76
2016-07-07T09:44:09.671Z,32.83
2016-07-07T09:45:09.687Z,32.6
2016-07-07T09:46:09.687Z,32.24
2016-07-07T09:47:09.691Z,31.86
2016-07-07T09:48:09.698Z,31.74
2016-07-07T09:49:09.699Z,31.6
2016-07-07T09:50:09.696Z,31.44
2016-07-07T09:51:09.699Z,31.18
2016-07-07T09:52:09.696Z,30.91
2016-07-07T09:53:09.699Z,30.58
2016-07-07T09:54:09.694Z,30.21
2016-07-07T09:55:09.704Z,29.58
2016-07-07T09:56:09.703Z,28.96
2016-07-07T09:57:09.686Z,28.35
2016-07-07T09:58:09.704Z,27.95
2016-07-07T09:59:09.711Z,27.55
2016-07-07T10:00:09.707Z,27.38
2016-07-07T10:01:09.707Z,27.01
2016-07-07T10:02:09.702Z,26.85
2016-07-07T10:03:09.703Z,26.79
2016-07-07T10:04:09.715Z,26.73
2016-07-07T10:05:09.706Z,26.81
2016-07-07T10:06:09.715Z,26.85
2016-07-07T10:07:09.719Z,26.96
2016-07-07T10:08:09.727Z,26.98
2016-07-07T10:09:09.724Z,26.81
2016-07-07T10:10:09.735Z,26.67
2016-07-07T10:11:09.719Z,26.52
2016-07-07T10:12:09.740Z,26.37
2016-07-07T10:13:09.735Z,26.41
2016-07-07T10:14:09.736Z,26.41
2016-07-07T10:15:09.744Z,26.23
2016-07-07T10:16:09.739Z,26.22
2016-07-07T10:17:09.747Z,26.08
2016-07-07T10:18:09.746Z,26.06
2016-07-07T10:19:09.857Z,26.1
2016-07-07T10:20:09.746Z,26.11
2016-07-07T10:21:09.752Z,26.22
2016-07-07T10:22:09.776Z,26.1
2016-07-07T10:23:09.131Z,25.86
2016-07-07T10:24:09.756Z,25.74
2016-07-07T10:25:09.764Z,25.62
2016-07-07T10:26:09.136Z,25.62
2016-07-07T10:27:09.764Z,25.61
2016-07-07T10:28:09.772Z,25.58
2016-07-07T10:29:09.752Z,25.66
2016-07-07T10:30:09.768Z,25.74
2016-07-07T10:31:09.756Z,25.77
2016-07-07T10:32:09.764Z,25.98
2016-07-07T10:33:09.777Z,26.16
2016-07-07T10:34:09.147Z,26.3
2016-07-07T10:35:09.756Z,26.33
2016-07-07T10:36:09.777Z,26.24
2016-07-07T10:37:09.780Z,26.36
2016-07-07T10:38:09.768Z,26.45
2016-07-07T10:39:09.785Z,26.56
2016-07-07T10:40:09.777Z,26.63
2016-07-07T10:41:09.793Z,26.67
2016-07-07T10:42:09.150Z,26.85
2016-07-07T10:43:09.789Z,26.93
2016-07-07T10:44:09.772Z,26.91
2016-07-07T10:45:09.794Z,26.96
2016-07-07T10:46:09.788Z,26.96
2016-07-07T10:47:09.160Z,26.86
2016-07-07T10:48:09.802Z,26.79
2016-07-07T10:49:09.172Z,26.83
2016-07-07T10:50:09.177Z,26.81
2016-07-07T10:51:09.801Z,26.79
2016-07-07T10:52:09.806Z,26.73
2016-07-07T10:53:09.189Z,26.83
2016-07-07T10:54:09.813Z,26.71
2016-07-07T10:55:09.820Z,26.79
2016-07-07T10:56:09.821Z,26.78
2016-07-07T10:57:09.192Z,26.74
2016-07-07T10:58:09.811Z,26.85
2016-07-07T10:59:09.196Z,26.97
2016-07-07T11:00:09.825Z,27.07
2016-07-07T11:01:12.215Z,27.08
2016-07-07T11:02:09.204Z,27.2
2016-07-07T11:03:09.835Z,27.2
2016-07-07T11:04:09.831Z,27.2
2016-07-07T11:05:09.836Z,27.26
2016-07-07T11:06:09.211Z,27.38
2016-07-07T11:07:09.840Z,27.33
2016-07-07T11:08:09.218Z,27.33
2016-07-07T11:09:09.843Z,27.34
2016-07-07T11:10:09.216Z,27.23
2016-07-07T11:11:09.211Z,27.23
2016-07-07T11:12:09.819Z,27.2
2016-07-07T11:13:09.852Z,27.07
2016-07-07T11:14:09.823Z,27.01
2016-07-07T11:15:09.842Z,26.86
2016-07-07T11:16:09.847Z,26.76
2016-07-07T11:17:09.867Z,26.6
2016-07-07T11:18:09.232Z,26.53
2016-07-07T11:19:09.851Z,26.39
2016-07-07T11:20:09.862Z,26.3
2016-07-07T11:21:09.872Z,26.08
2016-07-07T11:22:09.863Z,26.01
2016-07-07T11:23:09.239Z,25.92
2016-07-07T11:24:09.854Z,25.86
2016-07-07T11:25:09.243Z,25.8
2016-07-07T11:26:09.872Z,25.8
2016-07-07T11:27:09.880Z,25.83
2016-07-07T11:28:09.863Z,25.74
2016-07-07T11:29:09.876Z,25.66
2016-07-07T11:30:09.886Z,25.62
2016-07-07T11:31:09.900Z,25.59
2016-07-07T11:32:09.257Z,25.71
2016-07-07T11:33:09.261Z,25.77
2016-07-07T11:34:09.252Z,25.76
2016-07-07T11:35:09.258Z,25.91
2016-07-07T11:36:09.886Z,26.06
2016-07-07T11:37:09.877Z,26.19
2016-07-07T11:38:09.889Z,26.27
2016-07-07T11:39:09.270Z,26.45
2016-07-07T11:40:09.913Z,26.56
2016-07-07T11:41:09.282Z,26.64
2016-07-07T11:42:09.918Z,26.71
2016-07-07T11:43:09.906Z,26.76
2016-07-07T11:44:09.906Z,26.74
2016-07-07T11:45:09.913Z,26.81
2016-07-07T11:46:09.910Z,26.83
2016-07-07T11:47:09.283Z,26.88
2016-07-07T11:48:09.914Z,26.88
2016-07-07T11:49:09.919Z,26.98
2016-07-07T11:50:09.918Z,27
2016-07-07T11:51:09.919Z,26.83
2016-07-07T11:52:09.923Z,26.89
2016-07-07T11:53:09.294Z,26.82
2016-07-07T11:54:09.939Z,26.82
2016-07-07T11:55:09.923Z,26.89
2016-07-07T11:56:09.298Z,26.89
2016-07-07T11:57:09.931Z,26.88
2016-07-07T11:58:09.931Z,26.92
2016-07-07T11:59:09.299Z,27.01
2016-07-07T12:00:09.935Z,26.96
2016-07-07T12:01:09.311Z,27.03
2016-07-07T12:02:09.941Z,27.08
2016-07-07T12:03:09.945Z,27.13
2016-07-07T12:04:09.952Z,27.34
2016-07-07T12:05:09.315Z,27.34
2016-07-07T12:06:09.316Z,27.47
2016-07-07T12:07:09.944Z,27.52
2016-07-07T12:08:09.951Z,27.53
2016-07-07T12:09:09.943Z,27.66
2016-07-07T12:10:09.311Z,27.75
2016-07-07T12:11:09.951Z,27.68
2016-07-07T12:12:09.959Z,27.63
2016-07-07T12:13:09.959Z,27.6
2016-07-07T12:14:09.336Z,27.55
2016-07-07T12:15:09.327Z,27.53
2016-07-07T12:16:09.969Z,27.61
2016-07-07T12:17:09.968Z,27.67
2016-07-07T12:18:09.964Z,27.83
2016-07-07T12:19:09.968Z,27.83
2016-07-07T12:20:10.016Z,28.01
2016-07-07T12:21:09.968Z,28.09
2016-07-07T12:22:09.972Z,28.2
2016-07-07T12:23:09.342Z,28.18
2016-07-07T12:24:09.964Z,28.22
2016-07-07T12:25:09.348Z,28.25
2016-07-07T12:26:09.984Z,28.28
2016-07-07T12:27:09.968Z,28.27
2016-07-07T12:28:09.356Z,28.41
2016-07-07T12:29:09.988Z,28.31
2016-07-07T12:30:09.364Z,28.35
2016-07-07T12:31:09.508Z,28.41
2016-07-07T12:32:09.988Z,28.41
2016-07-07T12:33:09.981Z,28.45
2016-07-07T12:34:10.008Z,28.47
2016-07-07T12:35:09.988Z,28.53
2016-07-07T12:36:09.370Z,28.49
2016-07-07T12:37:10.000Z,28.53
2016-07-07T12:38:09.372Z,28.5
2016-07-07T12:39:09.992Z,28.59
2016-07-07T12:40:09.375Z,28.67
2016-07-07T12:41:08.756Z,28.64
2016-07-07T12:42:09.381Z,28.6
2016-07-07T12:43:10.004Z,28.59
2016-07-07T12:44:10.000Z,28.53
2016-07-07T12:45:09.379Z,28.5
2016-07-07T12:46:10.021Z,28.5
2016-07-07T12:47:10.013Z,28.4
2016-07-07T12:48:10.021Z,28.45
2016-07-07T12:49:10.026Z,28.38
2016-07-07T12:50:10.016Z,28.35
2016-07-07T12:51:10.028Z,28.37
2016-07-07T12:52:09.965Z,28.38
2016-07-07T12:53:09.964Z,28.4
2016-07-07T12:54:09.964Z,28.41
2016-07-07T12:55:09.968Z,28.4